Beekbergen, Netherlands
Current Conditions -  °F | °C
As of 5:25 PM on Wednesday 28 Jan 2015 (Local Time) from EHDL Reporting Station
Light Rain Light Rain  
Wind Chill: 29°   Ceiling: 1100
Heat Index: 37°   Visibility: 6mi
Dew Point: 36°   Wind: 14mph
Humidity: 93%   Direction: 280°W
Pressure: 29.38"   Gusts: NA
Location:  52.16°N, 5.96°E
Report Text: EHDL 281625Z AUTO 28012KT 9999 -RA SCT009 BKN011 OVC014 03/02 Q0995 RERA REDZ GRN
Loading
Personal Weather Stations






























Interactive Weather Map New forecast layout! Learn more

10-Day Weather Forecast

Advertisements
Track Severe Weather on mobile